sensor_id;sensor_type;location;lat;lon;timestamp;pressure;altitude;pressure_sealevel;temperature;humidity
33191;BME280;19554;42.652;23.364;2023-02-11T00:00:53;96274.91;;;-1.07;53.12
33191;BME280;19554;42.652;23.364;2023-02-11T00:03:18;96291.56;;;-1.00;53.41
33191;BME280;19554;42.652;23.364;2023-02-11T00:05:43;96292.63;;;-0.86;52.86
33191;BME280;19554;42.652;23.364;2023-02-11T00:08:09;96289.88;;;-0.93;52.85
33191;BME280;19554;42.652;23.364;2023-02-11T00:10:34;96288.34;;;-1.02;52.66
33191;BME280;19554;42.652;23.364;2023-02-11T00:12:59;96290.63;;;-1.07;52.35
33191;BME280;19554;42.652;23.364;2023-02-11T00:15:25;96197.41;;;-1.79;52.82
33191;BME280;19554;42.652;23.364;2023-02-11T00:17:50;96265.81;;;-1.42;52.80
33191;BME280;19554;42.652;23.364;2023-02-11T00:20:16;96210.00;;;-1.74;52.60
33191;BME280;19554;42.652;23.364;2023-02-11T00:22:41;96288.44;;;-1.27;52.39
33191;BME280;19554;42.652;23.364;2023-02-11T00:25:07;96287.81;;;-1.29;53.05
33191;BME280;19554;42.652;23.364;2023-02-11T00:27:32;96295.97;;;-1.24;53.11
33191;BME280;19554;42.652;23.364;2023-02-11T00:29:57;96283.41;;;-1.28;52.88
33191;BME280;19554;42.652;23.364;2023-02-11T00:32:25;96287.94;;;-1.22;53.01
33191;BME280;19554;42.652;23.364;2023-02-11T00:34:53;96185.78;;;-1.76;52.94
33191;BME280;19554;42.652;23.364;2023-02-11T00:37:20;96284.13;;;-1.11;52.58
33191;BME280;19554;42.652;23.364;2023-02-11T00:39:45;96283.78;;;-1.08;51.77
33191;BME280;19554;42.652;23.364;2023-02-11T00:42:13;96278.41;;;-1.15;51.80
33191;BME280;19554;42.652;23.364;2023-02-11T00:44:39;96288.72;;;-1.45;51.82
33191;BME280;19554;42.652;23.364;2023-02-11T00:47:04;96289.38;;;-1.42;52.54
33191;BME280;19554;42.652;23.364;2023-02-11T00:49:30;96257.50;;;-1.54;52.67
33191;BME280;19554;42.652;23.364;2023-02-11T00:51:55;96279.19;;;-1.37;52.40
33191;BME280;19554;42.652;23.364;2023-02-11T00:54:21;96281.31;;;-1.33;52.71
33191;BME280;19554;42.652;23.364;2023-02-11T00:56:46;96281.44;;;-1.26;52.53
33191;BME280;19554;42.652;23.364;2023-02-11T00:59:11;96279.56;;;-1.17;52.63
33191;BME280;19554;42.652;23.364;2023-02-11T01:01:37;96259.75;;;-1.20;52.27
33191;BME280;19554;42.652;23.364;2023-02-11T01:04:02;96280.84;;;-1.13;51.38
33191;BME280;19554;42.652;23.364;2023-02-11T01:06:27;96276.78;;;-1.16;51.50
33191;BME280;19554;42.652;23.364;2023-02-11T01:08:53;96273.03;;;-1.22;51.44
33191;BME280;19554;42.652;23.364;2023-02-11T01:11:20;96271.44;;;-1.23;51.63
33191;BME280;19554;42.652;23.364;2023-02-11T01:13:47;96274.06;;;-1.31;51.43
33191;BME280;19554;42.652;23.364;2023-02-11T01:16:13;96249.06;;;-1.33;51.53
33191;BME280;19554;42.652;23.364;2023-02-11T01:18:39;96267.16;;;-1.24;51.33
33191;BME280;19554;42.652;23.364;2023-02-11T01:21:06;96174.38;;;-1.83;51.26
33191;BME280;19554;42.652;23.364;2023-02-11T01:23:32;96252.44;;;-1.25;51.08
33191;BME280;19554;42.652;23.364;2023-02-11T01:25:57;96270.38;;;-1.13;51.38
33191;BME280;19554;42.652;23.364;2023-02-11T01:28:25;96270.38;;;-1.13;51.17
33191;BME280;19554;42.652;23.364;2023-02-11T01:30:50;96162.75;;;-1.81;50.87
33191;BME280;19554;42.652;23.364;2023-02-11T01:33:16;96241.97;;;-1.25;50.80
33191;BME280;19554;42.652;23.364;2023-02-11T01:35:43;96243.63;;;-1.32;50.85
33191;BME280;19554;42.652;23.364;2023-02-11T01:38:22;96267.34;;;-1.25;51.25
33191;BME280;19554;42.652;23.364;2023-02-11T01:41:09;96257.53;;;-1.31;51.04
33191;BME280;19554;42.652;23.364;2023-02-11T01:43:37;96256.81;;;-1.48;51.21
33191;BME280;19554;42.652;23.364;2023-02-11T01:46:27;96244.84;;;-1.74;51.95
33191;BME280;19554;42.652;23.364;2023-02-11T01:49:11;96253.41;;;-1.96;52.64
33191;BME280;19554;42.652;23.364;2023-02-11T01:54:27;96262.34;;;-2.22;53.50
33191;BME280;19554;42.652;23.364;2023-02-11T01:57:14;96169.13;;;-2.78;53.84
33191;BME280;19554;42.652;23.364;2023-02-11T02:03:00;96254.16;;;-2.19;53.75
33191;BME280;19554;42.652;23.364;2023-02-11T02:05:36;96257.06;;;-2.13;53.83
33191;BME280;19554;42.652;23.364;2023-02-11T02:08:24;96248.84;;;-2.02;53.21
33191;BME280;19554;42.652;23.364;2023-02-11T02:10:54;96249.66;;;-2.02;53.10
33191;BME280;19554;42.652;23.364;2023-02-11T02:13:22;96229.16;;;-2.21;53.57
33191;BME280;19554;42.652;23.364;2023-02-11T02:15:53;96216.53;;;-2.18;53.27
33191;BME280;19554;42.652;23.364;2023-02-11T02:26:45;96259.22;;;-2.25;53.30
33191;BME280;19554;42.652;23.364;2023-02-11T02:40:17;96161.41;;;-2.64;52.69
33191;BME280;19554;42.652;23.364;2023-02-11T02:42:45;96258.22;;;-2.08;52.57
33191;BME280;19554;42.652;23.364;2023-02-11T02:45:12;96233.16;;;-2.02;52.43
33191;BME280;19554;42.652;23.364;2023-02-11T02:47:38;96254.38;;;-1.89;51.96
33191;BME280;19554;42.652;23.364;2023-02-11T02:50:05;96216.97;;;-2.06;51.68
33191;BME280;19554;42.652;23.364;2023-02-11T02:55:25;96250.78;;;-1.88;51.49
33191;BME280;19554;42.652;23.364;2023-02-11T03:00:24;96261.63;;;-2.07;52.09
33191;BME280;19554;42.652;23.364;2023-02-11T03:09:32;96263.34;;;-2.39;52.85
33191;BME280;19554;42.652;23.364;2023-02-11T03:11:26;96209.81;;;-2.76;53.09
33191;BME280;19554;42.652;23.364;2023-02-11T03:13:53;96258.13;;;-2.39;52.86
33191;BME280;19554;42.652;23.364;2023-02-11T03:16:22;96258.25;;;-2.24;52.96
33191;BME280;19554;42.652;23.364;2023-02-11T03:18:57;96240.13;;;-2.34;52.56
33191;BME280;19554;42.652;23.364;2023-02-11T03:21:24;96265.56;;;-2.11;52.56
33191;BME280;19554;42.652;23.364;2023-02-11T03:23:54;96261.59;;;-1.99;52.01
33191;BME280;19554;42.652;23.364;2023-02-11T03:26:53;96258.66;;;-1.96;51.63
33191;BME280;19554;42.652;23.364;2023-02-11T03:29:36;96255.41;;;-1.98;51.67
33191;BME280;19554;42.652;23.364;2023-02-11T03:34:48;96255.41;;;-1.98;51.81
33191;BME280;19554;42.652;23.364;2023-02-11T03:40:06;96260.81;;;-2.16;52.10
33191;BME280;19554;42.652;23.364;2023-02-11T03:42:37;96249.88;;;-2.20;52.53
33191;BME280;19554;42.652;23.364;2023-02-11T03:45:08;96253.84;;;-2.32;52.60
33191;BME280;19554;42.652;23.364;2023-02-11T03:47:37;96259.75;;;-2.38;52.73
33191;BME280;19554;42.652;23.364;2023-02-11T03:50:06;96258.75;;;-2.53;53.01
33191;BME280;19554;42.652;23.364;2023-02-11T03:52:34;96221.56;;;-2.80;53.37
33191;BME280;19554;42.652;23.364;2023-02-11T03:55:05;96252.56;;;-2.60;53.46
33191;BME280;19554;42.652;23.364;2023-02-11T03:57:32;96248.66;;;-2.65;53.55
33191;BME280;19554;42.652;23.364;2023-02-11T03:59:59;96248.00;;;-2.58;53.60
33191;BME280;19554;42.652;23.364;2023-02-11T04:02:31;96250.28;;;-2.55;53.39
33191;BME280;19554;42.652;23.364;2023-02-11T04:04:57;96253.88;;;-2.48;53.05
33191;BME280;19554;42.652;23.364;2023-02-11T04:07:22;96241.47;;;-2.63;53.30
33191;BME280;19554;42.652;23.364;2023-02-11T04:09:48;96131.13;;;-3.54;53.55
33191;BME280;19554;42.652;23.364;2023-02-11T04:12:13;96159.19;;;-3.57;54.23
33191;BME280;19554;42.652;23.364;2023-02-11T04:14:38;96258.78;;;-2.94;53.97
33191;BME280;19554;42.652;23.364;2023-02-11T04:17:04;96225.63;;;-3.18;54.12
33191;BME280;19554;42.652;23.364;2023-02-11T04:19:29;96109.59;;;-3.81;53.95
33191;BME280;19554;42.652;23.364;2023-02-11T04:21:55;96255.19;;;-2.93;53.89
33191;BME280;19554;42.652;23.364;2023-02-11T04:24:20;96259.78;;;-2.87;54.08
33191;BME280;19554;42.652;23.364;2023-02-11T04:26:45;96253.25;;;-2.83;53.98
33191;BME280;19554;42.652;23.364;2023-02-11T04:29:11;96174.88;;;-3.24;54.04
33191;BME280;19554;42.652;23.364;2023-02-11T04:31:36;96247.03;;;-2.66;53.53
33191;BME280;19554;42.652;23.364;2023-02-11T04:34:02;96252.09;;;-2.72;53.61
33191;BME280;19554;42.652;23.364;2023-02-11T04:36:27;96242.94;;;-2.84;53.18
33191;BME280;19554;42.652;23.364;2023-02-11T04:38:52;96248.31;;;-3.02;54.29
33191;BME280;19554;42.652;23.364;2023-02-11T04:41:18;96233.94;;;-3.23;54.84
33191;BME280;19554;42.652;23.364;2023-02-11T04:43:43;96241.28;;;-3.35;56.00
33191;BME280;19554;42.652;23.364;2023-02-11T04:46:08;96237.19;;;-3.37;56.25
33191;BME280;19554;42.652;23.364;2023-02-11T04:48:34;96246.34;;;-3.25;55.88
33191;BME280;19554;42.652;23.364;2023-02-11T04:51:00;96245.34;;;-3.32;55.95
33191;BME280;19554;42.652;23.364;2023-02-11T04:53:26;96243.72;;;-3.33;55.78
33191;BME280;19554;42.652;23.364;2023-02-11T04:55:51;96238.47;;;-3.49;55.54
33191;BME280;19554;42.652;23.364;2023-02-11T04:58:18;96154.22;;;-3.92;55.84
33191;BME280;19554;42.652;23.364;2023-02-11T05:00:43;96170.59;;;-3.66;54.96
33191;BME280;19554;42.652;23.364;2023-02-11T05:03:09;96248.34;;;-3.11;54.59
33191;BME280;19554;42.652;23.364;2023-02-11T05:05:37;96253.25;;;-3.07;53.82
33191;BME280;19554;42.652;23.364;2023-02-11T05:08:03;96240.50;;;-3.02;53.91
33191;BME280;19554;42.652;23.364;2023-02-11T05:10:29;96248.34;;;-3.11;54.05
33191;BME280;19554;42.652;23.364;2023-02-11T05:12:54;96241.78;;;-3.23;54.58
33191;BME280;19554;42.652;23.364;2023-02-11T05:15:19;96226.28;;;-3.24;55.09
33191;BME280;19554;42.652;23.364;2023-02-11T05:17:45;96237.22;;;-3.04;54.26
33191;BME280;19554;42.652;23.364;2023-02-11T05:20:10;96229.41;;;-2.96;53.11
33191;BME280;19554;42.652;23.364;2023-02-11T05:22:36;96155.94;;;-3.42;52.95
33191;BME280;19554;42.652;23.364;2023-02-11T05:25:01;96227.59;;;-2.96;53.41
33191;BME280;19554;42.652;23.364;2023-02-11T05:27:27;96147.13;;;-3.58;54.08
33191;BME280;19554;42.652;23.364;2023-02-11T05:29:52;96216.97;;;-3.19;53.53
33191;BME280;19554;42.652;23.364;2023-02-11T05:32:17;96245.22;;;-3.06;52.83
33191;BME280;19554;42.652;23.364;2023-02-11T05:34:43;96235.94;;;-3.00;52.68
33191;BME280;19554;42.652;23.364;2023-02-11T05:37:08;96160.50;;;-3.44;52.82
33191;BME280;19554;42.652;23.364;2023-02-11T05:39:34;96235.25;;;-2.94;52.68
33191;BME280;19554;42.652;23.364;2023-02-11T05:41:59;96232.31;;;-2.91;52.51
33191;BME280;19554;42.652;23.364;2023-02-11T05:44:24;96234.28;;;-2.85;51.74
33191;BME280;19554;42.652;23.364;2023-02-11T05:46:50;96234.13;;;-2.75;51.46
33191;BME280;19554;42.652;23.364;2023-02-11T05:49:16;96199.03;;;-2.89;51.30
33191;BME280;19554;42.652;23.364;2023-02-11T05:51:41;96232.97;;;-2.48;51.62
33191;BME280;19554;42.652;23.364;2023-02-11T05:54:07;96228.50;;;-2.31;50.72
33191;BME280;19554;42.652;23.364;2023-02-11T05:56:32;96230.63;;;-2.27;49.88
33191;BME280;19554;42.652;23.364;2023-02-11T05:58:58;96242.66;;;-2.09;48.99
33191;BME280;19554;42.652;23.364;2023-02-11T06:01:24;96241.34;;;-1.97;48.56
33191;BME280;19554;42.652;23.364;2023-02-11T06:03:49;96138.88;;;-2.65;48.14
33191;BME280;19554;42.652;23.364;2023-02-11T06:06:16;96253.88;;;-1.84;48.17
33191;BME280;19554;42.652;23.364;2023-02-11T06:08:41;96242.94;;;-1.88;48.62
33191;BME280;19554;42.652;23.364;2023-02-11T06:11:07;96249.66;;;-1.94;49.22
33191;BME280;19554;42.652;23.364;2023-02-11T06:13:34;96253.41;;;-1.96;50.66
33191;BME280;19554;42.652;23.364;2023-02-11T06:16:01;96246.84;;;-1.92;50.27
33191;BME280;19554;42.652;23.364;2023-02-11T06:18:27;96251.78;;;-1.97;51.10
33191;BME280;19554;42.652;23.364;2023-02-11T06:20:52;96254.03;;;-1.86;50.63
33191;BME280;19554;42.652;23.364;2023-02-11T06:23:18;96251.41;;;-1.78;50.42
33191;BME280;19554;42.652;23.364;2023-02-11T06:25:43;96248.06;;;-1.63;50.15
33191;BME280;19554;42.652;23.364;2023-02-11T06:28:08;96248.66;;;-1.53;50.48
33191;BME280;19554;42.652;23.364;2023-02-11T06:30:36;96227.84;;;-1.24;49.10
33191;BME280;19554;42.652;23.364;2023-02-11T06:33:01;96245.81;;;-0.89;48.39
33191;BME280;19554;42.652;23.364;2023-02-11T06:35:27;96248.84;;;-0.78;47.14
33191;BME280;19554;42.652;23.364;2023-02-11T06:37:53;96206.09;;;-1.01;47.15
33191;BME280;19554;42.652;23.364;2023-02-11T06:40:19;96239.19;;;-0.62;46.77
33191;BME280;19554;42.652;23.364;2023-02-11T06:42:44;96232.25;;;-0.55;46.63
33191;BME280;19554;42.652;23.364;2023-02-11T06:45:10;96250.22;;;-0.90;47.17
33191;BME280;19554;42.652;23.364;2023-02-11T06:47:38;96248.97;;;-0.56;47.19
33191;BME280;19554;42.652;23.364;2023-02-11T06:50:05;96245.56;;;-0.42;47.26
33191;BME280;19554;42.652;23.364;2023-02-11T06:52:31;96241.25;;;-0.73;47.54
33191;BME280;19554;42.652;23.364;2023-02-11T06:54:57;96254.50;;;-0.89;48.48
33191;BME280;19554;42.652;23.364;2023-02-11T06:57:22;96229.38;;;-1.06;50.01
33191;BME280;19554;42.652;23.364;2023-02-11T06:59:48;96259.09;;;-0.30;48.79
33191;BME280;19554;42.652;23.364;2023-02-11T07:02:13;96246.78;;;-0.15;47.63
33191;BME280;19554;42.652;23.364;2023-02-11T07:04:39;96174.16;;;-0.82;48.42
33191;BME280;19554;42.652;23.364;2023-02-11T07:07:04;96226.53;;;-0.06;47.98
33191;BME280;19554;42.652;23.364;2023-02-11T07:09:29;96252.72;;;0.53;47.38
33191;BME280;19554;42.652;23.364;2023-02-11T07:11:55;96248.72;;;0.57;46.62
33191;BME280;19554;42.652;23.364;2023-02-11T07:14:20;96232.59;;;0.60;46.86
33191;BME280;19554;42.652;23.364;2023-02-11T07:16:46;96250.44;;;1.01;45.87
33191;BME280;19554;42.652;23.364;2023-02-11T07:19:11;96243.41;;;1.30;45.42
33191;BME280;19554;42.652;23.364;2023-02-11T07:21:36;96240.00;;;1.57;44.74
33191;BME280;19554;42.652;23.364;2023-02-11T07:24:06;96223.59;;;1.83;44.11
33191;BME280;19554;42.652;23.364;2023-02-11T07:26:32;96231.22;;;1.72;44.02
33191;BME280;19554;42.652;23.364;2023-02-11T07:28:57;96132.06;;;1.23;44.09
33191;BME280;19554;42.652;23.364;2023-02-11T07:31:25;96177.09;;;1.62;44.49
33191;BME280;19554;42.652;23.364;2023-02-11T07:33:52;96217.78;;;2.29;43.99
33191;BME280;19554;42.652;23.364;2023-02-11T07:36:17;96199.28;;;1.81;44.32
33191;BME280;19554;42.652;23.364;2023-02-11T07:38:43;96223.75;;;2.10;43.89
33191;BME280;19554;42.652;23.364;2023-02-11T07:41:11;96217.50;;;2.18;44.24
33191;BME280;19554;42.652;23.364;2023-02-11T07:43:38;96210.94;;;2.48;43.51
33191;BME280;19554;42.652;23.364;2023-02-11T07:46:10;96199.50;;;2.28;42.59
33191;BME280;19554;42.652;23.364;2023-02-11T07:48:35;96207.06;;;2.37;43.14
33191;BME280;19554;42.652;23.364;2023-02-11T07:51:09;96199.72;;;2.26;42.58
33191;BME280;19554;42.652;23.364;2023-02-11T07:53:35;96106.88;;;1.70;41.91
33191;BME280;19554;42.652;23.364;2023-02-11T07:56:02;96195.78;;;2.09;44.18
33191;BME280;19554;42.652;23.364;2023-02-11T07:58:27;96202.31;;;2.20;42.82
33191;BME280;19554;42.652;23.364;2023-02-11T08:00:53;96189.25;;;2.05;42.91
33191;BME280;19554;42.652;23.364;2023-02-11T08:03:18;96199.06;;;2.18;42.88
33191;BME280;19554;42.652;23.364;2023-02-11T08:05:44;96205.63;;;2.35;42.92
33191;BME280;19554;42.652;23.364;2023-02-11T08:08:09;96196.56;;;2.51;42.74
33191;BME280;19554;42.652;23.364;2023-02-11T08:10:34;96201.59;;;2.39;41.76
33191;BME280;19554;42.652;23.364;2023-02-11T08:13:01;96199.59;;;2.48;41.83
33191;BME280;19554;42.652;23.364;2023-02-11T08:15:26;96193.13;;;2.50;41.45
33191;BME280;19554;42.652;23.364;2023-02-11T08:17:51;96184.13;;;2.31;41.25
33191;BME280;19554;42.652;23.364;2023-02-11T08:20:17;96193.00;;;2.17;41.92
33191;BME280;19554;42.652;23.364;2023-02-11T08:22:42;96193.66;;;1.91;42.11
33191;BME280;19554;42.652;23.364;2023-02-11T08:25:07;96187.91;;;1.81;42.42
33191;BME280;19554;42.652;23.364;2023-02-11T08:27:33;96152.16;;;1.58;42.25
33191;BME280;19554;42.652;23.364;2023-02-11T08:29:58;96188.78;;;1.88;43.07
33191;BME280;19554;42.652;23.364;2023-02-11T08:32:24;96186.63;;;2.05;42.87
33191;BME280;19554;42.652;23.364;2023-02-11T08:34:51;96176.13;;;2.11;42.45
33191;BME280;19554;42.652;23.364;2023-02-11T08:37:17;96199.06;;;2.18;42.46
33191;BME280;19554;42.652;23.364;2023-02-11T08:39:43;96201.88;;;2.09;42.71
33191;BME280;19554;42.652;23.364;2023-02-11T08:42:09;96145.88;;;1.94;42.76
33191;BME280;19554;42.652;23.364;2023-02-11T08:44:34;96142.59;;;1.85;42.60
33191;BME280;19554;42.652;23.364;2023-02-11T08:46:59;96162.44;;;1.88;42.05
33191;BME280;19554;42.652;23.364;2023-02-11T08:49:25;96193.50;;;2.41;42.05
33191;BME280;19554;42.652;23.364;2023-02-11T08:51:50;96201.56;;;2.32;42.20
33191;BME280;19554;42.652;23.364;2023-02-11T08:54:16;96198.84;;;2.60;42.38
33191;BME280;19554;42.652;23.364;2023-02-11T08:56:42;96193.41;;;2.82;41.31
33191;BME280;19554;42.652;23.364;2023-02-11T08:59:09;96094.69;;;2.10;42.17
33191;BME280;19554;42.652;23.364;2023-02-11T09:01:36;96188.34;;;2.87;41.61
33191;BME280;19554;42.652;23.364;2023-02-11T09:04:02;96190.81;;;3.08;40.86
33191;BME280;19554;42.652;23.364;2023-02-11T09:06:28;96109.22;;;2.60;41.57
33191;BME280;19554;42.652;23.364;2023-02-11T09:12:15;96181.06;;;2.89;41.55
33191;BME280;19554;42.652;23.364;2023-02-11T09:14:40;96190.81;;;2.95;41.27
33191;BME280;19554;42.652;23.364;2023-02-11T09:17:07;96181.88;;;2.90;41.93
33191;BME280;19554;42.652;23.364;2023-02-11T09:19:32;96173.34;;;2.81;42.43
33191;BME280;19554;42.652;23.364;2023-02-11T09:21:58;96070.69;;;2.46;41.57
33191;BME280;19554;42.652;23.364;2023-02-11T09:24:23;96166.28;;;3.01;41.99
33191;BME280;19554;42.652;23.364;2023-02-11T09:26:49;96171.13;;;3.31;41.55
33191;BME280;19554;42.652;23.364;2023-02-11T09:29:14;96168.09;;;3.41;40.69
33191;BME280;19554;42.652;23.364;2023-02-11T09:31:39;96158.34;;;3.28;41.33
33191;BME280;19554;42.652;23.364;2023-02-11T09:34:05;96169.94;;;3.53;41.23
33191;BME280;19554;42.652;23.364;2023-02-11T09:36:35;96155.50;;;3.63;40.66
33191;BME280;19554;42.652;23.364;2023-02-11T09:39:03;96168.06;;;3.80;39.69
33191;BME280;19554;42.652;23.364;2023-02-11T09:43:59;96159.38;;;3.33;39.64
33191;BME280;19554;42.652;23.364;2023-02-11T09:46:31;96133.59;;;3.42;39.38
33191;BME280;19554;42.652;23.364;2023-02-11T09:48:58;96149.78;;;3.66;39.40
33191;BME280;19554;42.652;23.364;2023-02-11T09:51:37;96091.38;;;3.29;38.96
33191;BME280;19554;42.652;23.364;2023-02-11T09:54:11;96143.91;;;3.64;39.00
33191;BME280;19554;42.652;23.364;2023-02-11T09:56:37;96140.88;;;3.53;39.13
33191;BME280;19554;42.652;23.364;2023-02-11T09:59:03;96090.56;;;3.35;38.82
33191;BME280;19554;42.652;23.364;2023-02-11T10:01:49;96128.88;;;3.71;39.06
33191;BME280;19554;42.652;23.364;2023-02-11T10:07:30;96123.44;;;3.46;39.08
33191;BME280;19554;42.652;23.364;2023-02-11T10:15:24;96102.69;;;3.63;39.02
33191;BME280;19554;42.652;23.364;2023-02-11T10:23:53;96005.50;;;3.40;38.90
33191;BME280;19554;42.652;23.364;2023-02-11T10:26:19;96075.41;;;3.82;38.57
33191;BME280;19554;42.652;23.364;2023-02-11T10:28:47;96064.00;;;3.88;38.94
33191;BME280;19554;42.652;23.364;2023-02-11T10:31:17;96062.97;;;3.89;35.75
33191;BME280;19554;42.652;23.364;2023-02-11T10:34:08;96053.88;;;3.78;36.83
33191;BME280;19554;42.652;23.364;2023-02-11T10:36:37;96040.50;;;3.73;36.21
33191;BME280;19554;42.652;23.364;2023-02-11T10:39:20;96043.41;;;3.52;36.42
33191;BME280;19554;42.652;23.364;2023-02-11T10:41:51;96025.41;;;3.36;37.15
33191;BME280;19554;42.652;23.364;2023-02-11T10:44:29;96029.28;;;3.26;37.97
33191;BME280;19554;42.652;23.364;2023-02-11T10:46:56;96022.34;;;3.39;36.77
33191;BME280;19554;42.652;23.364;2023-02-11T10:49:39;96015.09;;;3.07;36.73
33191;BME280;19554;42.652;23.364;2023-02-11T10:52:23;96004.16;;;2.97;37.00
33191;BME280;19554;42.652;23.364;2023-02-11T10:57:30;95996.84;;;2.99;36.24
33191;BME280;19554;42.652;23.364;2023-02-11T11:00:00;95988.53;;;3.02;36.91
33191;BME280;19554;42.652;23.364;2023-02-11T11:02:32;95990.53;;;3.14;37.87
33191;BME280;19554;42.652;23.364;2023-02-11T11:05:06;95993.16;;;3.27;37.72
33191;BME280;19554;42.652;23.364;2023-02-11T11:07:52;95979.38;;;3.25;37.40
33191;BME280;19554;42.652;23.364;2023-02-11T11:10:40;95993.94;;;3.34;37.19
33191;BME280;19554;42.652;23.364;2023-02-11T11:13:33;95984.84;;;3.17;37.54
33191;BME280;19554;42.652;23.364;2023-02-11T11:16:29;95986.06;;;3.21;37.57
33191;BME280;19554;42.652;23.364;2023-02-11T11:21:45;95980.31;;;3.37;37.47
33191;BME280;19554;42.652;23.364;2023-02-11T11:24:27;95980.03;;;3.59;37.47
33191;BME280;19554;42.652;23.364;2023-02-11T11:26:59;95976.72;;;3.76;37.04
33191;BME280;19554;42.652;23.364;2023-02-11T11:29:37;95965.22;;;3.58;37.02
33191;BME280;19554;42.652;23.364;2023-02-11T11:32:24;95963.25;;;3.46;36.41
33191;BME280;19554;42.652;23.364;2023-02-11T11:34:56;95964.53;;;3.24;37.28
33191;BME280;19554;42.652;23.364;2023-02-11T11:37:29;95907.59;;;2.96;38.33
33191;BME280;19554;42.652;23.364;2023-02-11T11:40:01;95964.91;;;3.34;37.22
33191;BME280;19554;42.652;23.364;2023-02-11T11:42:30;95969.22;;;3.22;37.76
33191;BME280;19554;42.652;23.364;2023-02-11T11:45:01;95815.94;;;2.27;37.90
33191;BME280;19554;42.652;23.364;2023-02-11T11:47:40;95960.69;;;3.20;37.72
33191;BME280;19554;42.652;23.364;2023-02-11T11:50:18;95948.06;;;3.35;37.74
33191;BME280;19554;42.652;23.364;2023-02-11T11:58:35;95930.34;;;3.87;37.08
33191;BME280;19554;42.652;23.364;2023-02-11T12:15:24;95913.31;;;3.83;36.75
33191;BME280;19554;42.652;23.364;2023-02-11T12:25:47;95905.63;;;3.75;37.14
33191;BME280;19554;42.652;23.364;2023-02-11T12:28:28;95896.75;;;3.69;37.27
33191;BME280;19554;42.652;23.364;2023-02-11T12:42:33;95868.25;;;4.03;36.08
33191;BME280;19554;42.652;23.364;2023-02-11T12:56:51;95860.81;;;3.93;35.20
33191;BME280;19554;42.652;23.364;2023-02-11T13:02:23;95769.28;;;3.55;34.25
33191;BME280;19554;42.652;23.364;2023-02-11T13:05:03;95847.28;;;4.08;34.68
33191;BME280;19554;42.652;23.364;2023-02-11T13:07:49;95845.34;;;4.22;34.37
33191;BME280;19554;42.652;23.364;2023-02-11T13:10:26;95839.63;;;4.25;35.03
33191;BME280;19554;42.652;23.364;2023-02-11T13:12:55;95840.50;;;4.37;34.64
33191;BME280;19554;42.652;23.364;2023-02-11T13:15:47;95840.81;;;4.47;35.38
33191;BME280;19554;42.652;23.364;2023-02-11T13:18:28;95837.25;;;4.42;34.66
33191;BME280;19554;42.652;23.364;2023-02-11T13:26:36;95830.06;;;4.67;34.25
33191;BME280;19554;42.652;23.364;2023-02-11T13:31:40;95830.84;;;4.68;33.47
33191;BME280;19554;42.652;23.364;2023-02-11T13:42:22;95819.38;;;4.37;33.73
33191;BME280;19554;42.652;23.364;2023-02-11T13:44:48;95822.00;;;4.37;34.13
33191;BME280;19554;42.652;23.364;2023-02-11T13:47:33;95817.94;;;4.41;34.74
33191;BME280;19554;42.652;23.364;2023-02-11T13:50:04;95781.50;;;4.25;34.16
33191;BME280;19554;42.652;23.364;2023-02-11T13:52:33;95803.50;;;4.37;33.59
33191;BME280;19554;42.652;23.364;2023-02-11T13:57:37;95770.00;;;4.13;33.59
33191;BME280;19554;42.652;23.364;2023-02-11T14:06:26;95790.72;;;4.16;32.23
33191;BME280;19554;42.652;23.364;2023-02-11T14:11:45;95785.16;;;4.24;32.44
33191;BME280;19554;42.652;23.364;2023-02-11T14:19:36;95777.13;;;4.12;33.07
33191;BME280;19554;42.652;23.364;2023-02-11T14:27:06;95779.28;;;4.03;32.91
33191;BME280;19554;42.652;23.364;2023-02-11T14:35:50;95774.63;;;3.99;33.70
33191;BME280;19554;42.652;23.364;2023-02-11T14:39:01;95779.09;;;3.98;33.77
33191;BME280;19554;42.652;23.364;2023-02-11T14:41:38;95637.28;;;3.12;34.44
33191;BME280;19554;42.652;23.364;2023-02-11T14:44:13;95718.44;;;3.67;34.35
33191;BME280;19554;42.652;23.364;2023-02-11T14:46:43;95764.59;;;4.08;34.64
33191;BME280;19554;42.652;23.364;2023-02-11T14:49:24;95770.56;;;4.21;34.43
33191;BME280;19554;42.652;23.364;2023-02-11T14:51:51;95780.38;;;4.14;34.68
33191;BME280;19554;42.652;23.364;2023-02-11T14:54:21;95788.38;;;4.08;34.71
33191;BME280;19554;42.652;23.364;2023-02-11T14:59:30;95782.44;;;3.87;35.23
33191;BME280;19554;42.652;23.364;2023-02-11T15:01:56;95775.09;;;3.89;35.55
33191;BME280;19554;42.652;23.364;2023-02-11T15:04:29;95778.78;;;3.88;35.38
33191;BME280;19554;42.652;23.364;2023-02-11T15:06:57;95780.50;;;3.76;35.88
33191;BME280;19554;42.652;23.364;2023-02-11T15:09:43;95766.28;;;3.77;35.74
33191;BME280;19554;42.652;23.364;2023-02-11T15:12:20;95764.19;;;3.61;35.64
33191;BME280;19554;42.652;23.364;2023-02-11T15:14:50;95768.69;;;3.53;35.64
33191;BME280;19554;42.652;23.364;2023-02-11T15:17:21;95770.72;;;3.51;36.19
33191;BME280;19554;42.652;23.364;2023-02-11T15:19:47;95765.69;;;3.50;36.39
33191;BME280;19554;42.652;23.364;2023-02-11T15:22:17;95764.88;;;3.49;36.38
33191;BME280;19554;42.652;23.364;2023-02-11T15:24:44;95752.25;;;3.51;36.69
33191;BME280;19554;42.652;23.364;2023-02-11T15:27:13;95733.22;;;3.49;36.32
33191;BME280;19554;42.652;23.364;2023-02-11T15:29:48;95748.94;;;3.63;36.57
33191;BME280;19554;42.652;23.364;2023-02-11T15:32:22;95749.50;;;3.65;36.27
33191;BME280;19554;42.652;23.364;2023-02-11T15:34:50;95746.31;;;3.63;36.49
33191;BME280;19554;42.652;23.364;2023-02-11T15:37:21;95637.44;;;2.92;36.98
33191;BME280;19554;42.652;23.364;2023-02-11T15:39:47;95746.97;;;3.51;37.12
33191;BME280;19554;42.652;23.364;2023-02-11T15:42:20;95745.66;;;3.42;37.65
33191;BME280;19554;42.652;23.364;2023-02-11T15:44:47;95745.47;;;3.37;37.61
33191;BME280;19554;42.652;23.364;2023-02-11T15:47:18;95745.13;;;3.27;38.07
33191;BME280;19554;42.652;23.364;2023-02-11T15:49:45;95643.81;;;2.46;38.70
33191;BME280;19554;42.652;23.364;2023-02-11T15:52:12;95673.69;;;2.65;38.64
33191;BME280;19554;42.652;23.364;2023-02-11T15:54:39;95755.34;;;3.17;39.29